sensor_id;sensor_type;location;lat;lon;timestamp;P1;durP1;ratioP1;P2;durP2;ratioP2
74371;SDS011;62885;51.374;6.170;2023-04-25T00:00:30;11.95;;;3.20;;
74371;SDS011;62885;51.374;6.170;2023-04-25T00:02:55;7.97;;;2.40;;
74371;SDS011;62885;51.374;6.170;2023-04-25T00:05:21;10.98;;;3.28;;
74371;SDS011;62885;51.374;6.170;2023-04-25T00:07:48;9.15;;;2.67;;
74371;SDS011;62885;51.374;6.170;2023-04-25T00:10:14;8.90;;;2.33;;
74371;SDS011;62885;51.374;6.170;2023-04-25T00:12:40;10.68;;;3.20;;
74371;SDS011;62885;51.374;6.170;2023-04-25T00:15:06;9.65;;;3.08;;
74371;SDS011;62885;51.374;6.170;2023-04-25T00:17:32;9.27;;;2.65;;
74371;SDS011;62885;51.374;6.170;2023-04-25T00:19:57;7.85;;;2.92;;
74371;SDS011;62885;51.374;6.170;2023-04-25T00:22:23;6.82;;;2.33;;
74371;SDS011;62885;51.374;6.170;2023-04-25T00:24:49;10.35;;;2.80;;
74371;SDS011;62885;51.374;6.170;2023-04-25T00:27:14;7.72;;;2.50;;
74371;SDS011;62885;51.374;6.170;2023-04-25T00:29:40;7.88;;;3.00;;
74371;SDS011;62885;51.374;6.170;2023-04-25T00:32:05;9.15;;;2.85;;
74371;SDS011;62885;51.374;6.170;2023-04-25T00:34:30;7.93;;;2.53;;
74371;SDS011;62885;51.374;6.170;2023-04-25T00:36:55;8.02;;;2.53;;
74371;SDS011;62885;51.374;6.170;2023-04-25T00:39:21;11.25;;;2.90;;
74371;SDS011;62885;51.374;6.170;2023-04-25T00:41:47;9.25;;;2.33;;
74371;SDS011;62885;51.374;6.170;2023-04-25T00:44:13;6.20;;;2.40;;
74371;SDS011;62885;51.374;6.170;2023-04-25T00:46:41;5.57;;;2.58;;
74371;SDS011;62885;51.374;6.170;2023-04-25T00:49:07;10.85;;;2.58;;
74371;SDS011;62885;51.374;6.170;2023-04-25T00:51:33;11.63;;;2.65;;
74371;SDS011;62885;51.374;6.170;2023-04-25T00:53:59;6.45;;;2.30;;
74371;SDS011;62885;51.374;6.170;2023-04-25T00:56:25;6.70;;;2.42;;
74371;SDS011;62885;51.374;6.170;2023-04-25T00:58:52;7.13;;;2.72;;
74371;SDS011;62885;51.374;6.170;2023-04-25T01:01:21;7.35;;;2.33;;
74371;SDS011;62885;51.374;6.170;2023-04-25T01:03:47;9.77;;;2.90;;
74371;SDS011;62885;51.374;6.170;2023-04-25T01:06:15;11.65;;;2.78;;
74371;SDS011;62885;51.374;6.170;2023-04-25T01:08:41;8.73;;;2.85;;
74371;SDS011;62885;51.374;6.170;2023-04-25T01:11:06;6.70;;;2.17;;
74371;SDS011;62885;51.374;6.170;2023-04-25T01:13:32;8.68;;;2.30;;
74371;SDS011;62885;51.374;6.170;2023-04-25T01:15:58;7.38;;;2.80;;
74371;SDS011;62885;51.374;6.170;2023-04-25T01:18:24;8.50;;;3.08;;
74371;SDS011;62885;51.374;6.170;2023-04-25T01:20:52;7.63;;;2.63;;
74371;SDS011;62885;51.374;6.170;2023-04-25T01:23:22;8.20;;;2.38;;
74371;SDS011;62885;51.374;6.170;2023-04-25T01:25:48;6.95;;;2.17;;
74371;SDS011;62885;51.374;6.170;2023-04-25T01:28:14;8.85;;;2.47;;
74371;SDS011;62885;51.374;6.170;2023-04-25T01:30:40;8.25;;;2.78;;
74371;SDS011;62885;51.374;6.170;2023-04-25T01:33:06;11.75;;;2.83;;
74371;SDS011;62885;51.374;6.170;2023-04-25T01:35:33;6.13;;;2.53;;
74371;SDS011;62885;51.374;6.170;2023-04-25T01:37:58;8.43;;;2.72;;
74371;SDS011;62885;51.374;6.170;2023-04-25T01:40:24;7.97;;;2.22;;
74371;SDS011;62885;51.374;6.170;2023-04-25T01:42:52;8.57;;;3.03;;
74371;SDS011;62885;51.374;6.170;2023-04-25T01:45:18;12.52;;;3.20;;
74371;SDS011;62885;51.374;6.170;2023-04-25T01:47:43;8.32;;;2.92;;
74371;SDS011;62885;51.374;6.170;2023-04-25T01:50:13;6.45;;;2.28;;
74371;SDS011;62885;51.374;6.170;2023-04-25T01:52:40;11.40;;;2.83;;
74371;SDS011;62885;51.374;6.170;2023-04-25T01:55:05;11.38;;;4.25;;
74371;SDS011;62885;51.374;6.170;2023-04-25T01:57:31;9.25;;;2.63;;
74371;SDS011;62885;51.374;6.170;2023-04-25T01:59:58;12.13;;;3.10;;
74371;SDS011;62885;51.374;6.170;2023-04-25T02:02:25;7.72;;;2.60;;
74371;SDS011;62885;51.374;6.170;2023-04-25T02:04:51;13.75;;;2.95;;
74371;SDS011;62885;51.374;6.170;2023-04-25T02:07:16;5.85;;;2.35;;
74371;SDS011;62885;51.374;6.170;2023-04-25T02:09:42;8.43;;;2.33;;
74371;SDS011;62885;51.374;6.170;2023-04-25T02:12:08;10.52;;;2.83;;
74371;SDS011;62885;51.374;6.170;2023-04-25T02:14:35;8.02;;;2.60;;
74371;SDS011;62885;51.374;6.170;2023-04-25T02:17:00;7.68;;;2.40;;
74371;SDS011;62885;51.374;6.170;2023-04-25T02:19:25;8.38;;;2.80;;
74371;SDS011;62885;51.374;6.170;2023-04-25T02:21:51;7.38;;;2.80;;
74371;SDS011;62885;51.374;6.170;2023-04-25T02:24:16;10.77;;;2.70;;
74371;SDS011;62885;51.374;6.170;2023-04-25T02:26:41;9.70;;;2.83;;
74371;SDS011;62885;51.374;6.170;2023-04-25T02:29:07;8.40;;;2.78;;
74371;SDS011;62885;51.374;6.170;2023-04-25T02:31:32;7.63;;;2.50;;
74371;SDS011;62885;51.374;6.170;2023-04-25T02:33:57;7.68;;;2.30;;
74371;SDS011;62885;51.374;6.170;2023-04-25T02:36:23;8.93;;;2.63;;
74371;SDS011;62885;51.374;6.170;2023-04-25T02:38:49;10.02;;;2.67;;
74371;SDS011;62885;51.374;6.170;2023-04-25T02:41:15;11.07;;;2.95;;
74371;SDS011;62885;51.374;6.170;2023-04-25T02:43:40;9.98;;;2.50;;
74371;SDS011;62885;51.374;6.170;2023-04-25T02:46:07;8.32;;;2.65;;
74371;SDS011;62885;51.374;6.170;2023-04-25T02:48:32;10.52;;;2.80;;
74371;SDS011;62885;51.374;6.170;2023-04-25T02:50:58;11.43;;;3.33;;
74371;SDS011;62885;51.374;6.170;2023-04-25T02:53:23;8.55;;;3.25;;
74371;SDS011;62885;51.374;6.170;2023-04-25T02:55:48;8.40;;;2.63;;
74371;SDS011;62885;51.374;6.170;2023-04-25T02:58:14;10.02;;;2.90;;
74371;SDS011;62885;51.374;6.170;2023-04-25T03:00:40;8.63;;;3.33;;
74371;SDS011;62885;51.374;6.170;2023-04-25T03:03:05;8.00;;;3.30;;
74371;SDS011;62885;51.374;6.170;2023-04-25T03:05:31;8.10;;;2.78;;
74371;SDS011;62885;51.374;6.170;2023-04-25T03:07:56;8.35;;;2.67;;
74371;SDS011;62885;51.374;6.170;2023-04-25T03:10:21;8.85;;;3.10;;
74371;SDS011;62885;51.374;6.170;2023-04-25T03:12:47;7.95;;;2.85;;
74371;SDS011;62885;51.374;6.170;2023-04-25T03:15:12;7.20;;;2.47;;
74371;SDS011;62885;51.374;6.170;2023-04-25T03:17:37;8.93;;;3.40;;
74371;SDS011;62885;51.374;6.170;2023-04-25T03:20:03;8.77;;;2.90;;
74371;SDS011;62885;51.374;6.170;2023-04-25T03:22:29;9.90;;;2.72;;
74371;SDS011;62885;51.374;6.170;2023-04-25T03:24:54;8.38;;;3.63;;
74371;SDS011;62885;51.374;6.170;2023-04-25T03:27:20;9.73;;;3.20;;
74371;SDS011;62885;51.374;6.170;2023-04-25T03:29:45;13.80;;;3.58;;
74371;SDS011;62885;51.374;6.170;2023-04-25T03:32:10;11.63;;;3.22;;
74371;SDS011;62885;51.374;6.170;2023-04-25T03:34:36;9.57;;;3.10;;
74371;SDS011;62885;51.374;6.170;2023-04-25T03:37:01;9.32;;;3.15;;
74371;SDS011;62885;51.374;6.170;2023-04-25T03:39:27;7.95;;;2.95;;
74371;SDS011;62885;51.374;6.170;2023-04-25T03:41:52;10.02;;;2.83;;
74371;SDS011;62885;51.374;6.170;2023-04-25T03:44:17;7.25;;;2.75;;
74371;SDS011;62885;51.374;6.170;2023-04-25T03:46:43;12.95;;;3.95;;
74371;SDS011;62885;51.374;6.170;2023-04-25T03:49:08;15.15;;;3.67;;
74371;SDS011;62885;51.374;6.170;2023-04-25T03:51:33;9.65;;;3.67;;
74371;SDS011;62885;51.374;6.170;2023-04-25T03:53:59;15.70;;;5.45;;
74371;SDS011;62885;51.374;6.170;2023-04-25T03:56:24;13.38;;;3.75;;
74371;SDS011;62885;51.374;6.170;2023-04-25T03:58:49;12.63;;;3.92;;
74371;SDS011;62885;51.374;6.170;2023-04-25T04:01:15;10.50;;;3.30;;
74371;SDS011;62885;51.374;6.170;2023-04-25T04:03:40;8.32;;;3.30;;
74371;SDS011;62885;51.374;6.170;2023-04-25T04:06:06;6.90;;;2.65;;
74371;SDS011;62885;51.374;6.170;2023-04-25T04:08:33;12.00;;;3.55;;
74371;SDS011;62885;51.374;6.170;2023-04-25T04:10:59;11.80;;;2.92;;
74371;SDS011;62885;51.374;6.170;2023-04-25T04:13:28;10.02;;;3.03;;
74371;SDS011;62885;51.374;6.170;2023-04-25T04:15:54;12.57;;;2.78;;
74371;SDS011;62885;51.374;6.170;2023-04-25T04:18:20;8.80;;;2.75;;
74371;SDS011;62885;51.374;6.170;2023-04-25T04:20:46;8.70;;;2.80;;
74371;SDS011;62885;51.374;6.170;2023-04-25T04:23:11;11.30;;;3.05;;
74371;SDS011;62885;51.374;6.170;2023-04-25T04:25:37;12.45;;;3.70;;
74371;SDS011;62885;51.374;6.170;2023-04-25T04:28:03;15.45;;;3.30;;
74371;SDS011;62885;51.374;6.170;2023-04-25T04:30:28;7.53;;;2.25;;
74371;SDS011;62885;51.374;6.170;2023-04-25T04:32:58;14.05;;;3.50;;
74371;SDS011;62885;51.374;6.170;2023-04-25T04:35:23;10.25;;;2.83;;
74371;SDS011;62885;51.374;6.170;2023-04-25T04:37:49;10.98;;;2.97;;
74371;SDS011;62885;51.374;6.170;2023-04-25T04:40:15;7.75;;;2.80;;
74371;SDS011;62885;51.374;6.170;2023-04-25T04:42:44;9.52;;;3.00;;
74371;SDS011;62885;51.374;6.170;2023-04-25T04:45:13;11.55;;;2.90;;
74371;SDS011;62885;51.374;6.170;2023-04-25T04:47:39;6.82;;;3.25;;
74371;SDS011;62885;51.374;6.170;2023-04-25T04:50:08;12.07;;;2.78;;
74371;SDS011;62885;51.374;6.170;2023-04-25T04:52:36;9.55;;;3.05;;
74371;SDS011;62885;51.374;6.170;2023-04-25T04:55:03;7.13;;;2.38;;
74371;SDS011;62885;51.374;6.170;2023-04-25T04:57:30;7.47;;;2.67;;
74371;SDS011;62885;51.374;6.170;2023-04-25T04:59:56;12.05;;;3.55;;
74371;SDS011;62885;51.374;6.170;2023-04-25T05:02:22;14.25;;;3.78;;
74371;SDS011;62885;51.374;6.170;2023-04-25T05:04:47;12.75;;;2.97;;
74371;SDS011;62885;51.374;6.170;2023-04-25T05:07:13;12.05;;;2.90;;
74371;SDS011;62885;51.374;6.170;2023-04-25T05:09:38;7.97;;;2.47;;
74371;SDS011;62885;51.374;6.170;2023-04-25T05:12:03;8.05;;;1.98;;
74371;SDS011;62885;51.374;6.170;2023-04-25T05:14:29;11.82;;;2.83;;
74371;SDS011;62885;51.374;6.170;2023-04-25T05:16:54;10.18;;;2.70;;
74371;SDS011;62885;51.374;6.170;2023-04-25T05:19:20;7.57;;;2.47;;
74371;SDS011;62885;51.374;6.170;2023-04-25T05:21:45;11.48;;;2.50;;
74371;SDS011;62885;51.374;6.170;2023-04-25T05:24:10;14.07;;;3.50;;
74371;SDS011;62885;51.374;6.170;2023-04-25T05:26:36;7.50;;;2.85;;
74371;SDS011;62885;51.374;6.170;2023-04-25T05:29:02;11.88;;;2.72;;
74371;SDS011;62885;51.374;6.170;2023-04-25T05:31:28;7.90;;;2.83;;
74371;SDS011;62885;51.374;6.170;2023-04-25T05:33:53;11.75;;;2.63;;
74371;SDS011;62885;51.374;6.170;2023-04-25T05:36:19;9.88;;;2.55;;
74371;SDS011;62885;51.374;6.170;2023-04-25T05:38:44;7.32;;;2.17;;
74371;SDS011;62885;51.374;6.170;2023-04-25T05:41:10;6.20;;;2.25;;
74371;SDS011;62885;51.374;6.170;2023-04-25T05:43:35;9.25;;;3.03;;
74371;SDS011;62885;51.374;6.170;2023-04-25T05:46:01;8.43;;;2.33;;
74371;SDS011;62885;51.374;6.170;2023-04-25T05:48:26;7.68;;;2.15;;
74371;SDS011;62885;51.374;6.170;2023-04-25T05:50:51;12.80;;;2.40;;
74371;SDS011;62885;51.374;6.170;2023-04-25T05:53:17;8.20;;;2.67;;
74371;SDS011;62885;51.374;6.170;2023-04-25T05:55:43;12.48;;;2.60;;
74371;SDS011;62885;51.374;6.170;2023-04-25T05:58:08;7.30;;;3.30;;
74371;SDS011;62885;51.374;6.170;2023-04-25T06:00:34;9.15;;;2.55;;
74371;SDS011;62885;51.374;6.170;2023-04-25T06:02:59;7.55;;;2.83;;
74371;SDS011;62885;51.374;6.170;2023-04-25T06:05:25;7.40;;;2.95;;
74371;SDS011;62885;51.374;6.170;2023-04-25T06:07:51;16.25;;;4.35;;
74371;SDS011;62885;51.374;6.170;2023-04-25T06:10:16;11.00;;;3.60;;
74371;SDS011;62885;51.374;6.170;2023-04-25T06:12:41;10.95;;;3.85;;
74371;SDS011;62885;51.374;6.170;2023-04-25T06:15:07;9.30;;;2.28;;
74371;SDS011;62885;51.374;6.170;2023-04-25T06:17:33;14.15;;;2.15;;
74371;SDS011;62885;51.374;6.170;2023-04-25T06:19:58;8.57;;;2.35;;
74371;SDS011;62885;51.374;6.170;2023-04-25T06:22:24;8.60;;;2.55;;
74371;SDS011;62885;51.374;6.170;2023-04-25T06:24:49;9.02;;;2.38;;
74371;SDS011;62885;51.374;6.170;2023-04-25T06:27:14;9.23;;;2.97;;
74371;SDS011;62885;51.374;6.170;2023-04-25T06:29:40;9.55;;;2.70;;
74371;SDS011;62885;51.374;6.170;2023-04-25T06:32:05;8.10;;;2.65;;
74371;SDS011;62885;51.374;6.170;2023-04-25T06:34:30;8.38;;;2.47;;
74371;SDS011;62885;51.374;6.170;2023-04-25T06:36:56;9.30;;;2.42;;
74371;SDS011;62885;51.374;6.170;2023-04-25T06:39:21;10.95;;;2.67;;
74371;SDS011;62885;51.374;6.170;2023-04-25T06:41:48;12.82;;;2.33;;
74371;SDS011;62885;51.374;6.170;2023-04-25T06:44:14;10.25;;;2.33;;
74371;SDS011;62885;51.374;6.170;2023-04-25T06:46:40;9.88;;;2.63;;
74371;SDS011;62885;51.374;6.170;2023-04-25T06:49:05;13.90;;;2.15;;
74371;SDS011;62885;51.374;6.170;2023-04-25T06:51:31;10.18;;;2.50;;
74371;SDS011;62885;51.374;6.170;2023-04-25T06:53:56;9.32;;;2.42;;
74371;SDS011;62885;51.374;6.170;2023-04-25T06:56:22;8.25;;;2.47;;
74371;SDS011;62885;51.374;6.170;2023-04-25T06:58:48;8.57;;;2.20;;
74371;SDS011;62885;51.374;6.170;2023-04-25T07:01:13;8.45;;;2.42;;
74371;SDS011;62885;51.374;6.170;2023-04-25T07:03:39;7.53;;;2.05;;
74371;SDS011;62885;51.374;6.170;2023-04-25T07:06:04;9.98;;;1.70;;
74371;SDS011;62885;51.374;6.170;2023-04-25T07:08:32;7.88;;;2.45;;
74371;SDS011;62885;51.374;6.170;2023-04-25T07:10:57;8.15;;;2.08;;
74371;SDS011;62885;51.374;6.170;2023-04-25T07:13:23;9.13;;;2.10;;
74371;SDS011;62885;51.374;6.170;2023-04-25T07:15:48;7.88;;;1.92;;
74371;SDS011;62885;51.374;6.170;2023-04-25T07:18:13;7.65;;;2.03;;
74371;SDS011;62885;51.374;6.170;2023-04-25T07:20:40;4.13;;;1.67;;
74371;SDS011;62885;51.374;6.170;2023-04-25T07:23:05;7.35;;;1.90;;
74371;SDS011;62885;51.374;6.170;2023-04-25T07:25:31;8.05;;;2.10;;
74371;SDS011;62885;51.374;6.170;2023-04-25T07:27:56;8.48;;;2.50;;
74371;SDS011;62885;51.374;6.170;2023-04-25T07:30:21;7.28;;;2.10;;
74371;SDS011;62885;51.374;6.170;2023-04-25T07:32:47;7.18;;;2.05;;
74371;SDS011;62885;51.374;6.170;2023-04-25T07:35:13;5.88;;;2.00;;
74371;SDS011;62885;51.374;6.170;2023-04-25T07:37:39;12.93;;;2.83;;
74371;SDS011;62885;51.374;6.170;2023-04-25T07:40:04;14.88;;;3.47;;
74371;SDS011;62885;51.374;6.170;2023-04-25T07:42:30;9.02;;;1.70;;
74371;SDS011;62885;51.374;6.170;2023-04-25T07:44:57;10.48;;;2.53;;
74371;SDS011;62885;51.374;6.170;2023-04-25T07:47:22;7.13;;;2.10;;
74371;SDS011;62885;51.374;6.170;2023-04-25T07:49:50;9.93;;;2.80;;
74371;SDS011;62885;51.374;6.170;2023-04-25T07:52:15;7.45;;;1.83;;
74371;SDS011;62885;51.374;6.170;2023-04-25T07:54:41;7.85;;;2.00;;
74371;SDS011;62885;51.374;6.170;2023-04-25T07:57:06;6.90;;;2.20;;
74371;SDS011;62885;51.374;6.170;2023-04-25T07:59:32;11.90;;;2.50;;
74371;SDS011;62885;51.374;6.170;2023-04-25T08:01:57;9.05;;;2.50;;
74371;SDS011;62885;51.374;6.170;2023-04-25T08:04:23;6.85;;;2.00;;
74371;SDS011;62885;51.374;6.170;2023-04-25T08:06:49;8.75;;;2.08;;
74371;SDS011;62885;51.374;6.170;2023-04-25T08:09:15;11.63;;;3.08;;
74371;SDS011;62885;51.374;6.170;2023-04-25T08:11:40;7.85;;;2.05;;
74371;SDS011;62885;51.374;6.170;2023-04-25T08:14:06;6.95;;;2.20;;
74371;SDS011;62885;51.374;6.170;2023-04-25T08:16:32;9.00;;;1.80;;
74371;SDS011;62885;51.374;6.170;2023-04-25T08:18:58;6.05;;;2.03;;
74371;SDS011;62885;51.374;6.170;2023-04-25T08:21:24;10.65;;;1.90;;
74371;SDS011;62885;51.374;6.170;2023-04-25T08:23:51;6.18;;;1.95;;
74371;SDS011;62885;51.374;6.170;2023-04-25T08:26:17;4.30;;;1.80;;
74371;SDS011;62885;51.374;6.170;2023-04-25T08:28:42;8.52;;;1.58;;
74371;SDS011;62885;51.374;6.170;2023-04-25T08:31:08;3.38;;;1.85;;
74371;SDS011;62885;51.374;6.170;2023-04-25T08:33:33;10.77;;;2.05;;
74371;SDS011;62885;51.374;6.170;2023-04-25T08:35:59;7.13;;;2.20;;
74371;SDS011;62885;51.374;6.170;2023-04-25T08:38:24;6.30;;;1.90;;
74371;SDS011;62885;51.374;6.170;2023-04-25T08:40:50;12.60;;;2.53;;
74371;SDS011;62885;51.374;6.170;2023-04-25T08:43:18;3.28;;;1.40;;
74371;SDS011;62885;51.374;6.170;2023-04-25T08:45:45;7.20;;;2.05;;
74371;SDS011;62885;51.374;6.170;2023-04-25T08:48:11;8.18;;;2.30;;
74371;SDS011;62885;51.374;6.170;2023-04-25T08:53:09;6.60;;;1.50;;
74371;SDS011;62885;51.374;6.170;2023-04-25T08:55:42;4.32;;;1.25;;
74371;SDS011;62885;51.374;6.170;2023-04-25T08:58:09;8.70;;;1.30;;
74371;SDS011;62885;51.374;6.170;2023-04-25T09:00:35;4.50;;;1.40;;
74371;SDS011;62885;51.374;6.170;2023-04-25T09:03:01;2.70;;;1.05;;
74371;SDS011;62885;51.374;6.170;2023-04-25T09:05:26;5.35;;;1.08;;
74371;SDS011;62885;51.374;6.170;2023-04-25T09:07:53;5.53;;;1.70;;
74371;SDS011;62885;51.374;6.170;2023-04-25T09:10:19;9.95;;;1.65;;
74371;SDS011;62885;51.374;6.170;2023-04-25T09:12:44;4.10;;;1.30;;
74371;SDS011;62885;51.374;6.170;2023-04-25T09:15:10;11.18;;;1.40;;
74371;SDS011;62885;51.374;6.170;2023-04-25T09:17:37;2.63;;;1.13;;
74371;SDS011;62885;51.374;6.170;2023-04-25T09:20:10;3.80;;;1.92;;
74371;SDS011;62885;51.374;6.170;2023-04-25T09:22:37;4.68;;;1.30;;
74371;SDS011;62885;51.374;6.170;2023-04-25T09:25:09;6.82;;;1.55;;
74371;SDS011;62885;51.374;6.170;2023-04-25T09:27:36;4.65;;;2.08;;
74371;SDS011;62885;51.374;6.170;2023-04-25T09:30:15;5.13;;;1.52;;
74371;SDS011;62885;51.374;6.170;2023-04-25T09:32:55;2.67;;;1.02;;
74371;SDS011;62885;51.374;6.170;2023-04-25T09:35:25;3.90;;;1.08;;
74371;SDS011;62885;51.374;6.170;2023-04-25T09:37:51;6.80;;;1.25;;
74371;SDS011;62885;51.374;6.170;2023-04-25T09:40:17;4.28;;;1.50;;
74371;SDS011;62885;51.374;6.170;2023-04-25T09:42:43;4.57;;;1.05;;
74371;SDS011;62885;51.374;6.170;2023-04-25T09:45:08;7.72;;;1.50;;
74371;SDS011;62885;51.374;6.170;2023-04-25T09:47:38;6.18;;;1.40;;
74371;SDS011;62885;51.374;6.170;2023-04-25T09:50:04;9.82;;;1.42;;
74371;SDS011;62885;51.374;6.170;2023-04-25T09:52:40;4.13;;;1.33;;
74371;SDS011;62885;51.374;6.170;2023-04-25T09:55:05;5.35;;;1.13;;
74371;SDS011;62885;51.374;6.170;2023-04-25T09:57:31;7.25;;;1.67;;
74371;SDS011;62885;51.374;6.170;2023-04-25T09:59:56;3.88;;;1.42;;
74371;SDS011;62885;51.374;6.170;2023-04-25T10:02:26;6.13;;;1.65;;
74371;SDS011;62885;51.374;6.170;2023-04-25T10:04:53;7.38;;;1.75;;
74371;SDS011;62885;51.374;6.170;2023-04-25T10:07:23;5.25;;;1.38;;
74371;SDS011;62885;51.374;6.170;2023-04-25T10:09:52;4.03;;;1.23;;
74371;SDS011;62885;51.374;6.170;2023-04-25T10:12:24;3.78;;;1.27;;
74371;SDS011;62885;51.374;6.170;2023-04-25T10:14:49;3.95;;;1.25;;
74371;SDS011;62885;51.374;6.170;2023-04-25T10:17:15;6.45;;;1.70;;
74371;SDS011;62885;51.374;6.170;2023-04-25T10:19:42;6.22;;;1.65;;
74371;SDS011;62885;51.374;6.170;2023-04-25T10:22:18;7.43;;;1.63;;
74371;SDS011;62885;51.374;6.170;2023-04-25T10:24:51;3.47;;;1.40;;
74371;SDS011;62885;51.374;6.170;2023-04-25T10:27:17;7.00;;;1.85;;
74371;SDS011;62885;51.374;6.170;2023-04-25T10:29:43;4.90;;;1.30;;
74371;SDS011;62885;51.374;6.170;2023-04-25T10:32:09;5.35;;;1.30;;
74371;SDS011;62885;51.374;6.170;2023-04-25T10:34:38;7.07;;;2.63;;
74371;SDS011;62885;51.374;6.170;2023-04-25T10:37:10;4.18;;;1.48;;
74371;SDS011;62885;51.374;6.170;2023-04-25T10:39:37;3.95;;;1.10;;
74371;SDS011;62885;51.374;6.170;2023-04-25T10:42:06;2.55;;;1.00;;
74371;SDS011;62885;51.374;6.170;2023-04-25T10:44:36;4.38;;;1.00;;
74371;SDS011;62885;51.374;6.170;2023-04-25T10:47:05;4.32;;;0.90;;
74371;SDS011;62885;51.374;6.170;2023-04-25T10:49:36;3.75;;;0.98;;
74371;SDS011;62885;51.374;6.170;2023-04-25T10:54:43;11.57;;;1.42;;
74371;SDS011;62885;51.374;6.170;2023-04-25T10:57:28;3.08;;;1.50;;
74371;SDS011;62885;51.374;6.170;2023-04-25T11:00:08;2.13;;;0.77;;
74371;SDS011;62885;51.374;6.170;2023-04-25T11:02:37;4.80;;;1.30;;
74371;SDS011;62885;51.374;6.170;2023-04-25T11:05:05;3.47;;;1.05;;
74371;SDS011;62885;51.374;6.170;2023-04-25T11:10:01;3.08;;;1.10;;
74371;SDS011;62885;51.374;6.170;2023-04-25T11:12:29;4.50;;;1.20;;
74371;SDS011;62885;51.374;6.170;2023-04-25T11:15:00;5.30;;;1.25;;
74371;SDS011;62885;51.374;6.170;2023-04-25T11:17:30;3.53;;;0.88;;
74371;SDS011;62885;51.374;6.170;2023-04-25T11:19:55;5.00;;;1.05;;
74371;SDS011;62885;51.374;6.170;2023-04-25T11:22:21;7.32;;;1.50;;
74371;SDS011;62885;51.374;6.170;2023-04-25T11:24:47;2.28;;;0.80;;
74371;SDS011;62885;51.374;6.170;2023-04-25T11:27:12;2.50;;;1.08;;
74371;SDS011;62885;51.374;6.170;2023-04-25T11:29:38;3.03;;;1.13;;
74371;SDS011;62885;51.374;6.170;2023-04-25T11:32:05;4.75;;;1.23;;
74371;SDS011;62885;51.374;6.170;2023-04-25T11:34:31;4.18;;;1.23;;
74371;SDS011;62885;51.374;6.170;2023-04-25T11:36:58;3.17;;;1.10;;
74371;SDS011;62885;51.374;6.170;2023-04-25T11:39:25;1.83;;;1.10;;
74371;SDS011;62885;51.374;6.170;2023-04-25T11:41:51;2.40;;;0.80;;
74371;SDS011;62885;51.374;6.170;2023-04-25T11:44:17;3.45;;;0.73;;
74371;SDS011;62885;51.374;6.170;2023-04-25T11:46:45;1.02;;;0.52;;
74371;SDS011;62885;51.374;6.170;2023-04-25T11:49:11;2.95;;;0.90;;
74371;SDS011;62885;51.374;6.170;2023-04-25T11:51:38;3.10;;;0.90;;
74371;SDS011;62885;51.374;6.170;2023-04-25T11:54:10;1.48;;;0.88;;
74371;SDS011;62885;51.374;6.170;2023-04-25T11:56:44;4.03;;;0.82;;
74371;SDS011;62885;51.374;6.170;2023-04-25T11:59:10;4.82;;;1.00;;
74371;SDS011;62885;51.374;6.170;2023-04-25T12:01:38;4.13;;;1.13;;
74371;SDS011;62885;51.374;6.170;2023-04-25T12:04:21;3.25;;;0.80;;
74371;SDS011;62885;51.374;6.170;2023-04-25T12:06:52;3.78;;;1.10;;
74371;SDS011;62885;51.374;6.170;2023-04-25T12:11:53;3.22;;;0.88;;
74371;SDS011;62885;51.374;6.170;2023-04-25T12:14:24;3.45;;;1.23;;
74371;SDS011;62885;51.374;6.170;2023-04-25T12:19:26;3.15;;;1.15;;
74371;SDS011;62885;51.374;6.170;2023-04-25T12:21:57;2.72;;;0.80;;
74371;SDS011;62885;51.374;6.170;2023-04-25T12:24:24;1.90;;;1.10;;
74371;SDS011;62885;51.374;6.170;2023-04-25T12:29:30;3.88;;;1.40;;
74371;SDS011;62885;51.374;6.170;2023-04-25T12:31:57;4.05;;;0.80;;
74371;SDS011;62885;51.374;6.170;2023-04-25T12:34:23;5.25;;;1.30;;
74371;SDS011;62885;51.374;6.170;2023-04-25T12:36:49;4.07;;;1.50;;
74371;SDS011;62885;51.374;6.170;2023-04-25T12:39:18;4.55;;;0.90;;
74371;SDS011;62885;51.374;6.170;2023-04-25T12:41:46;2.15;;;0.80;;
74371;SDS011;62885;51.374;6.170;2023-04-25T12:44:12;3.28;;;1.17;;
74371;SDS011;62885;51.374;6.170;2023-04-25T12:46:39;1.58;;;0.95;;
74371;SDS011;62885;51.374;6.170;2023-04-25T12:49:05;3.83;;;1.50;;
74371;SDS011;62885;51.374;6.170;2023-04-25T12:51:32;6.03;;;1.20;;
74371;SDS011;62885;51.374;6.170;2023-04-25T12:54:01;4.13;;;1.00;;
74371;SDS011;62885;51.374;6.170;2023-04-25T12:56:28;5.18;;;1.40;;
74371;SDS011;62885;51.374;6.170;2023-04-25T12:58:54;5.82;;;0.85;;
74371;SDS011;62885;51.374;6.170;2023-04-25T13:01:20;2.05;;;1.30;;
74371;SDS011;62885;51.374;6.170;2023-04-25T13:03:46;4.15;;;1.40;;
74371;SDS011;62885;51.374;6.170;2023-04-25T13:06:12;5.35;;;1.40;;
74371;SDS011;62885;51.374;6.170;2023-04-25T13:08:38;3.35;;;1.55;;
74371;SDS011;62885;51.374;6.170;2023-04-25T13:11:04;5.85;;;1.52;;
74371;SDS011;62885;51.374;6.170;2023-04-25T13:13:30;4.97;;;1.50;;
74371;SDS011;62885;51.374;6.170;2023-04-25T13:15:56;4.70;;;1.20;;
74371;SDS011;62885;51.374;6.170;2023-04-25T13:18:22;7.85;;;1.50;;
74371;SDS011;62885;51.374;6.170;2023-04-25T13:20:51;4.78;;;1.73;;
74371;SDS011;62885;51.374;6.170;2023-04-25T13:23:19;2.58;;;1.40;;
74371;SDS011;62885;51.374;6.170;2023-04-25T13:25:45;5.57;;;1.08;;
74371;SDS011;62885;51.374;6.170;2023-04-25T13:28:11;3.17;;;1.00;;
74371;SDS011;62885;51.374;6.170;2023-04-25T13:30:37;3.50;;;1.17;;
74371;SDS011;62885;51.374;6.170;2023-04-25T13:33:02;2.85;;;1.20;;
74371;SDS011;62885;51.374;6.170;2023-04-25T13:35:28;6.25;;;1.30;;
74371;SDS011;62885;51.374;6.170;2023-04-25T13:37:55;2.88;;;1.33;;
74371;SDS011;62885;51.374;6.170;2023-04-25T13:40:21;3.25;;;0.82;;
74371;SDS011;62885;51.374;6.170;2023-04-25T13:42:46;2.08;;;0.93;;
74371;SDS011;62885;51.374;6.170;2023-04-25T13:45:12;2.78;;;0.75;;
74371;SDS011;62885;51.374;6.170;2023-04-25T13:47:37;2.55;;;0.73;;
74371;SDS011;62885;51.374;6.170;2023-04-25T13:50:03;1.60;;;0.77;;
74371;SDS011;62885;51.374;6.170;2023-04-25T13:52:32;2.40;;;0.77;;
74371;SDS011;62885;51.374;6.170;2023-04-25T13:54:58;1.27;;;0.80;;
74371;SDS011;62885;51.374;6.170;2023-04-25T13:57:24;1.10;;;0.45;;
74371;SDS011;62885;51.374;6.170;2023-04-25T13:59:50;2.67;;;1.13;;
74371;SDS011;62885;51.374;6.170;2023-04-25T14:02:16;1.58;;;0.85;;
74371;SDS011;62885;51.374;6.170;2023-04-25T14:04:42;2.30;;;0.90;;
74371;SDS011;62885;51.374;6.170;2023-04-25T14:07:07;3.88;;;1.00;;
74371;SDS011;62885;51.374;6.170;2023-04-25T14:09:33;1.75;;;0.80;;
74371;SDS011;62885;51.374;6.170;2023-04-25T14:11:59;3.13;;;0.90;;
74371;SDS011;62885;51.374;6.170;2023-04-25T14:14:25;2.28;;;0.93;;
74371;SDS011;62885;51.374;6.170;2023-04-25T14:16:50;5.80;;;1.33;;
74371;SDS011;62885;51.374;6.170;2023-04-25T14:19:18;3.10;;;1.02;;
74371;SDS011;62885;51.374;6.170;2023-04-25T14:21:44;5.97;;;1.48;;
74371;SDS011;62885;51.374;6.170;2023-04-25T14:24:09;7.47;;;1.60;;
74371;SDS011;62885;51.374;6.170;2023-04-25T14:26:36;4.82;;;1.30;;
74371;SDS011;62885;51.374;6.170;2023-04-25T14:29:02;3.63;;;1.35;;
74371;SDS011;62885;51.374;6.170;2023-04-25T14:31:28;4.45;;;1.33;;
74371;SDS011;62885;51.374;6.170;2023-04-25T14:33:53;2.50;;;1.23;;
74371;SDS011;62885;51.374;6.170;2023-04-25T14:36:19;1.48;;;0.73;;
74371;SDS011;62885;51.374;6.170;2023-04-25T14:38:45;2.45;;;0.95;;
74371;SDS011;62885;51.374;6.170;2023-04-25T14:41:10;2.60;;;0.90;;
74371;SDS011;62885;51.374;6.170;2023-04-25T14:43:36;3.38;;;1.10;;
74371;SDS011;62885;51.374;6.170;2023-04-25T14:46:01;2.05;;;0.95;;
74371;SDS011;62885;51.374;6.170;2023-04-25T14:48:28;1.70;;;0.80;;
74371;SDS011;62885;51.374;6.170;2023-04-25T14:50:56;1.40;;;0.68;;
74371;SDS011;62885;51.374;6.170;2023-04-25T14:53:22;3.42;;;0.90;;
74371;SDS011;62885;51.374;6.170;2023-04-25T14:55:48;6.82;;;1.27;;